A- A+ FrançaisEnglishEspañol中国

最近的 FBKY KanyeLFBT Tarbes-Lourdes-PyrénéesFARG Rustenburg LSGS SionFAPN Pilansberg Sun City VVPQ Phuquoc

飞行员的航空天气,使用METAR(气象机场报告)进行的飞行准备和TAF(终端机场预报:针对以下情况的短期天气预报)航空)。 以及其他资源,例如VAC(目视进近图)和NOTAM(通知飞行员)以进行预试飞行.

METAR, TAF, VAC, NOTAM Emmen机场 (瑞士) / OACI LSME/ IATA EML

它位于附近 , Emmen 在 1.2 km, Amt Luzern 在 2.9 km, Ebikon 在 3 km, Buchrain 在 3.2 km, Gerliswil 在 3.3 km, Eschenbach (LU) 在 3.7 km, Perlen 在 4.7 km, Inwil 在 4.9 km, Adligenswil 在 5.2 km, Luzern 在 5.3 km,

机场的高度为 Emmen机场的

427 m = 1401 ft

跑道 Emmen机场的

附近的机场Emmen机场的

目前的天气 Emmen机场的 - LSME

brume
14°C

Vent 0 km/h

可提供5天天气预报 Emmen 在 1.2 km, Amt Luzern 在 2.9 km, Ebikon 在 3 km, Buchrain 在 3.2 km, Gerliswil 在 3.3 km, Eschenbach (LU) 在 3.7 km, Perlen 在 4.7 km, Inwil 在 4.9 km, Adligenswil 在 5.2 km, Luzern 在 5.3 km,

METAR Emmen机场的 - LSME

LSME 200220Z AUTO 00000KT 4400NDV BR SCT008 OVC010 14/14 Q1016 RMK

Emmen机场METAR解码 (瑞士)

LSME机场发行的METAR日期2020年09月20日至02:20 GMT. 这是一个自动生成的METAR, 警告:此METAR已过期, 已于 2 小时 12 分钟.

可见度为4.4 km = 2.7 sm.

温度为14°C = 57 °F 露点为14°C = 57 °F 。 这相当于100%的相对湿度。.

QNH是1016 hPa = 30 inHg

的风0 kt = 0 km/h, 风向为0°.

云:距离800 ft = 240 m. 多云1000 ft = 300 m.

备注

TAF Emmen机场的 - LSME

没有TAF

Emmen机场的NOTAM

提供的NOTAM不能保证其时事性。 在将其用于飞行准备或在飞行期间使用之前,飞行员是唯一负责验证其有效性的人员。

没有通知

数据源